Gabriella — OJHP — position and weather

sailwx.info

Track history (hours):
 
Tides and Currents Weather Stations Pressure Air Temp Water Temp Dewpoint Dewpoint Depression Visibility Wind Speed Wind Dir Waves Ship Positions

Gabriella

Last reported at 2014-Oct-02 14:31 UTC. Time now 2014-Oct-02 16:29 UTC.
Position N 59°19' E 018°07'.

Length 172 m; draft 6.5 m.

Type: Passenger vessel. MMSI: 230361000.

Date/timePositionNaut miles runAvg speedWind from/ knotsBaromVisibWave heightAir tempDewpointWater temp
2014-Oct-02 14:31N 59°19' E 018°07'0 0.4
2014-Oct-02 13:31N 59°19' E 018°06'0 0.0
2014-Oct-02 12:28N 59°19' E 018°06'0 0.0
2014-Oct-02 11:31N 59°19' E 018°06'0 0.0
2014-Oct-02 10:31N 59°19' E 018°06'0 0.0
2014-Oct-02 09:31N 59°19' E 018°06'0 0.0
2014-Oct-02 08:31N 59°19' E 018°06'93 9.1
2014-Oct-01 22:17N 59°37' E 021°05'1317.4
2014-Oct-01 21:34N 59°34' E 021°29'5317.2
2014-Oct-01 18:27N 59°40' E 023°14'1617.4
2014-Oct-01 17:33N 59°44' E 023°44'1917.5
2014-Oct-01 16:29N 59°49' E 024°20'22 2.2
2014-Oct-01 06:23N 60°01' E 024°57'1818.2
2014-Oct-01 05:25N 59°51' E 024°27'1618.3
2014-Oct-01 04:33N 59°46' E 023°58'1818.4
2014-Oct-01 03:33N 59°41' E 023°23'4118.2
2014-Oct-01 01:19N 59°33' E 022°04'1418.1
2014-Oct-01 00:34N 59°33' E 021°37'9711.5
2014-Sep-30 16:09N 59°27' E 018°26'6 9.3
2014-Sep-30 15:32N 59°22' E 018°27'1010.3
2014-Sep-30 14:33N 59°19' E 018°07'1 0.6
2014-Sep-30 13:29N 59°19' E 018°06'0 0.0
2014-Sep-30 12:32N 59°19' E 018°06'0 0.0
2014-Sep-30 11:32N 59°19' E 018°06'0 0.0
2014-Sep-30 10:29N 59°19' E 018°06'0 0.0
2014-Sep-30 09:32N 59°19' E 018°06'0 0.0
2014-Sep-30 08:32N 59°19' E 018°06'2 2.1
2014-Sep-30 07:32N 59°19' E 018°10'91 9.8
2014-Sep-29 22:16N 59°37' E 021°05'1217.6
2014-Sep-29 21:34N 59°34' E 021°29'5417.1
2014-Sep-29 18:26N 59°39' E 023°14'1517.3
2014-Sep-29 17:33N 59°44' E 023°43'1917.3
2014-Sep-29 16:26N 59°49' E 024°20'2117.1
2014-Sep-29 15:12N 60°01' E 024°55'4 0.4
2014-Sep-29 06:33N 60°04' E 024°58'1917.3
2014-Sep-29 05:28N 59°52' E 024°29'1718.3
2014-Sep-29 04:33N 59°46' E 023°58'1818.4
2014-Sep-29 03:33N 59°41' E 023°23'4018.3
2014-Sep-29 01:21N 59°33' E 022°05'1418.0
2014-Sep-29 00:33N 59°33' E 021°36'9711.5
2014-Sep-28 16:06N 59°27' E 018°26'12 7.8
2014-Sep-28 14:33N 59°19' E 018°08'1 1.0
2014-Sep-28 13:32N 59°19' E 018°06'0 0.0
2014-Sep-28 12:32N 59°19' E 018°06'0 0.0
2014-Sep-28 11:32N 59°19' E 018°06'0 0.0
2014-Sep-28 10:32N 59°19' E 018°06'0 0.0
2014-Sep-28 09:32N 59°19' E 018°06'0 0.0
2014-Sep-28 08:32N 59°19' E 018°06'2 2.5
2014-Sep-28 07:33N 59°19' E 018°11'90 9.7
2014-Sep-27 22:13N 59°37' E 021°05'1117.1
2014-Sep-27 21:33N 59°34' E 021°27'5217.1
2014-Sep-27 18:31N 59°39' E 023°09'1717.6
2014-Sep-27 17:33N 59°45' E 023°41'2017.9
2014-Sep-27 16:25N 59°56' E 024°14'8 0.8
2014-Sep-27 05:27N 59°52' E 024°29'1618.2
2014-Sep-27 04:33N 59°46' E 023°58'1818.3
2014-Sep-27 03:33N 59°42' E 023°23'4018.3
2014-Sep-27 01:23N 59°33' E 022°06'1518.0
2014-Sep-27 00:33N 59°33' E 021°37'9711.5
2014-Sep-26 16:07N 59°27' E 018°26'12 7.8
2014-Sep-26 14:32N 59°19' E 018°07'1 0.8
2014-Sep-26 13:33N 59°19' E 018°06'0 0.0
2014-Sep-26 12:33N 59°19' E 018°06'0 0.0
2014-Sep-26 11:33N 59°19' E 018°06'0 0.0
2014-Sep-26 10:33N 59°19' E 018°06'0 0.0
2014-Sep-26 09:33N 59°19' E 018°06'0 0.0
2014-Sep-26 08:33N 59°19' E 018°06'93 9.0
2014-Sep-25 22:18N 59°37' E 021°05'1317.4
2014-Sep-25 21:33N 59°34' E 021°29'5417.2
2014-Sep-25 18:26N 59°40' E 023°15'1517.4
2014-Sep-25 17:33N 59°44' E 023°44'20 1.7
2014-Sep-25 05:12N 59°50' E 024°23'1117.3
2014-Sep-25 04:33N 59°47' E 024°02'1818.0
2014-Sep-25 03:33N 59°43' E 023°27'4218.4
2014-Sep-25 01:16N 59°33' E 022°06'1318.1
2014-Sep-25 00:33N 59°33' E 021°41'9910.9
2014-Sep-24 15:28N 59°22' E 018°27'1010.8
2014-Sep-24 14:33N 59°19' E 018°08'1 0.9
2014-Sep-24 13:33N 59°19' E 018°06'0 0.0
2014-Sep-24 12:24N 59°19' E 018°06'0 0.0
2014-Sep-24 11:33N 59°19' E 018°06'0 0.0
2014-Sep-24 10:33N 59°19' E 018°06'0 0.0
2014-Sep-24 09:33N 59°19' E 018°06'0 0.0
2014-Sep-24 08:33N 59°19' E 018°06'2 2.3
2014-Sep-24 07:31N 59°19' E 018°11'91 9.8
2014-Sep-23 22:14N 59°37' E 021°06'1217.4
2014-Sep-23 21:34N 59°34' E 021°29'5117.0
2014-Sep-23 18:33N 59°40' E 023°09'1717.1
2014-Sep-23 17:33N 59°44' E 023°42'2017.3
2014-Sep-23 16:25N 59°50' E 024°19'28 7.1
2014-Sep-23 12:32N 60°10' E 024°58'0 0.0
2014-Sep-23 11:32N 60°10' E 024°58'0 0.0
2014-Sep-23 10:26N 60°10' E 024°58'0 0.0
2014-Sep-23 09:32N 60°10' E 024°58'0 0.0
2014-Sep-23 08:32N 60°10' E 024°58'0 0.0
2014-Sep-23 07:32N 60°10' E 024°58'6 6.2
2014-Sep-23 06:34N 60°04' E 024°57'9217.9
2014-Sep-23 01:26N 59°32' E 022°06'1516.9
2014-Sep-23 00:34N 59°33' E 021°37'9711.5
2014-Sep-22 16:12N 59°28' E 018°26'710.0
2014-Sep-22 15:30N 59°22' E 018°27'1010.7
2014-Sep-22 14:33N 59°19' E 018°07'  
Track history (hours):
 
Tides and Currents Weather Stations Pressure Air Temp Water Temp Dewpoint Dewpoint Depression Visibility Wind Speed Wind Dir Waves Ship Positions

Gabriella

Last reported at 2014-Oct-02 14:31 UTC. Time now 2014-Oct-02 16:29 UTC.
Position N 59°19' E 018°07'.

Length 172 m; draft 6.5 m.

Type: Passenger vessel. MMSI: 230361000.

Date/timePositionNaut miles runAvg speedWind from/ knotsBaromVisibWave heightAir tempDewpointWater temp
2014-Oct-02 14:31N 59°19' E 018°07'0 0.4
2014-Oct-02 13:31N 59°19' E 018°06'0 0.0
2014-Oct-02 12:28N 59°19' E 018°06'0 0.0
2014-Oct-02 11:31N 59°19' E 018°06'0 0.0
2014-Oct-02 10:31N 59°19' E 018°06'0 0.0
2014-Oct-02 09:31N 59°19' E 018°06'0 0.0
2014-Oct-02 08:31N 59°19' E 018°06'93 9.1
2014-Oct-01 22:17N 59°37' E 021°05'1317.4
2014-Oct-01 21:34N 59°34' E 021°29'5317.2
2014-Oct-01 18:27N 59°40' E 023°14'1617.4
2014-Oct-01 17:33N 59°44' E 023°44'1917.5
2014-Oct-01 16:29N 59°49' E 024°20'22 2.2
2014-Oct-01 06:23N 60°01' E 024°57'1818.2
2014-Oct-01 05:25N 59°51' E 024°27'1618.3
2014-Oct-01 04:33N 59°46' E 023°58'1818.4
2014-Oct-01 03:33N 59°41' E 023°23'4118.2
2014-Oct-01 01:19N 59°33' E 022°04'1418.1
2014-Oct-01 00:34N 59°33' E 021°37'9711.5
2014-Sep-30 16:09N 59°27' E 018°26'6 9.3
2014-Sep-30 15:32N 59°22' E 018°27'1010.3
2014-Sep-30 14:33N 59°19' E 018°07'1 0.6
2014-Sep-30 13:29N 59°19' E 018°06'0 0.0
2014-Sep-30 12:32N 59°19' E 018°06'0 0.0
2014-Sep-30 11:32N 59°19' E 018°06'0 0.0
2014-Sep-30 10:29N 59°19' E 018°06'0 0.0
2014-Sep-30 09:32N 59°19' E 018°06'0 0.0
2014-Sep-30 08:32N 59°19' E 018°06'2 2.1
2014-Sep-30 07:32N 59°19' E 018°10'91 9.8
2014-Sep-29 22:16N 59°37' E 021°05'1217.6
2014-Sep-29 21:34N 59°34' E 021°29'5417.1
2014-Sep-29 18:26N 59°39' E 023°14'1517.3
2014-Sep-29 17:33N 59°44' E 023°43'1917.3
2014-Sep-29 16:26N 59°49' E 024°20'2117.1
2014-Sep-29 15:12N 60°01' E 024°55'4 0.4
2014-Sep-29 06:33N 60°04' E 024°58'1917.3
2014-Sep-29 05:28N 59°52' E 024°29'1718.3
2014-Sep-29 04:33N 59°46' E 023°58'1818.4
2014-Sep-29 03:33N 59°41' E 023°23'4018.3
2014-Sep-29 01:21N 59°33' E 022°05'1418.0
2014-Sep-29 00:33N 59°33' E 021°36'9711.5
2014-Sep-28 16:06N 59°27' E 018°26'12 7.8
2014-Sep-28 14:33N 59°19' E 018°08'1 1.0
2014-Sep-28 13:32N 59°19' E 018°06'0 0.0
2014-Sep-28 12:32N 59°19' E 018°06'0 0.0
2014-Sep-28 11:32N 59°19' E 018°06'0 0.0
2014-Sep-28 10:32N 59°19' E 018°06'0 0.0
2014-Sep-28 09:32N 59°19' E 018°06'0 0.0
2014-Sep-28 08:32N 59°19' E 018°06'2 2.5
2014-Sep-28 07:33N 59°19' E 018°11'90 9.7
2014-Sep-27 22:13N 59°37' E 021°05'1117.1
2014-Sep-27 21:33N 59°34' E 021°27'5217.1
2014-Sep-27 18:31N 59°39' E 023°09'1717.6
2014-Sep-27 17:33N 59°45' E 023°41'2017.9
2014-Sep-27 16:25N 59°56' E 024°14'8 0.8
2014-Sep-27 05:27N 59°52' E 024°29'1618.2
2014-Sep-27 04:33N 59°46' E 023°58'1818.3
2014-Sep-27 03:33N 59°42' E 023°23'4018.3
2014-Sep-27 01:23N 59°33' E 022°06'1518.0
2014-Sep-27 00:33N 59°33' E 021°37'9711.5
2014-Sep-26 16:07N 59°27' E 018°26'12 7.8
2014-Sep-26 14:32N 59°19' E 018°07'1 0.8
2014-Sep-26 13:33N 59°19' E 018°06'0 0.0
2014-Sep-26 12:33N 59°19' E 018°06'0 0.0
2014-Sep-26 11:33N 59°19' E 018°06'0 0.0
2014-Sep-26 10:33N 59°19' E 018°06'0 0.0
2014-Sep-26 09:33N 59°19' E 018°06'0 0.0
2014-Sep-26 08:33N 59°19' E 018°06'93 9.0
2014-Sep-25 22:18N 59°37' E 021°05'1317.4
2014-Sep-25 21:33N 59°34' E 021°29'5417.2
2014-Sep-25 18:26N 59°40' E 023°15'1517.4
2014-Sep-25 17:33N 59°44' E 023°44'20 1.7
2014-Sep-25 05:12N 59°50' E 024°23'1117.3
2014-Sep-25 04:33N 59°47' E 024°02'1818.0
2014-Sep-25 03:33N 59°43' E 023°27'4218.4
2014-Sep-25 01:16N 59°33' E 022°06'1318.1
2014-Sep-25 00:33N 59°33' E 021°41'9910.9
2014-Sep-24 15:28N 59°22' E 018°27'1010.8
2014-Sep-24 14:33N 59°19' E 018°08'1 0.9
2014-Sep-24 13:33N 59°19' E 018°06'0 0.0
2014-Sep-24 12:24N 59°19' E 018°06'0 0.0
2014-Sep-24 11:33N 59°19' E 018°06'0 0.0
2014-Sep-24 10:33N 59°19' E 018°06'0 0.0
2014-Sep-24 09:33N 59°19' E 018°06'0 0.0
2014-Sep-24 08:33N 59°19' E 018°06'2 2.3
2014-Sep-24 07:31N 59°19' E 018°11'91 9.8
2014-Sep-23 22:14N 59°37' E 021°06'1217.4
2014-Sep-23 21:34N 59°34' E 021°29'5117.0
2014-Sep-23 18:33N 59°40' E 023°09'1717.1
2014-Sep-23 17:33N 59°44' E 023°42'2017.3
2014-Sep-23 16:25N 59°50' E 024°19'28 7.1
2014-Sep-23 12:32N 60°10' E 024°58'0 0.0
2014-Sep-23 11:32N 60°10' E 024°58'0 0.0
2014-Sep-23 10:26N 60°10' E 024°58'0 0.0
2014-Sep-23 09:32N 60°10' E 024°58'0 0.0
2014-Sep-23 08:32N 60°10' E 024°58'0 0.0
2014-Sep-23 07:32N 60°10' E 024°58'6 6.2
2014-Sep-23 06:34N 60°04' E 024°57'9217.9
2014-Sep-23 01:26N 59°32' E 022°06'1516.9
2014-Sep-23 00:34N 59°33' E 021°37'9711.5
2014-Sep-22 16:12N 59°28' E 018°26'710.0
2014-Sep-22 15:30N 59°22' E 018°27'1010.7
2014-Sep-22 14:33N 59°19' E 018°07'  

Dump ship's entire track history